Treviso / Sant'Angelo Airport

Jump to: basic info | weather | frequencies | runways | comments

Related pages: nearby airports | nearby navaids | notams | map

Basic information (top)

Codes: TSF LIPH
Location: lon 45.648399, lat 12.194400, elev 59 ft / 18 m msl
Status: large_airport
Scheduled airline service: yes
Links: Wikipedia Mobile

Weather (top)

Current conditions (rec'd 2014/04/20 07:45Z):

LIPH 200745Z /////KT 9999 SCT080 15/11 Q1006 RMK SCT VIS MIN 9999 WIND THR07 09004KT BLU

Airport forecast (rec'd 2013/12/14 06:24Z):

TAF LIPH 140500Z 1406/1418 VRB03KT 0100 FG OVC001 PROB30 
      TEMPO 1403/1409 0800 BCFG BKN001 
      BECMG 1409/1411 1500 BR BKN005

Frequencies (top)

Verify before use: may be inaccurate or out of date.

APP: 36.23 MHz (APP)
APP: 120.4 MHz (APP)
GND: 27.917 MHz (GND)
INFO: 124.15 MHz (PADOVA INFO)
TWR: 118.7 MHz (TWR)

Runways (top)

07/25: 7,941 x 144 ft (2,420 x 44 m) — paved — lighted — threshold 07 displaced 254 ft (77 m) — threshold 25 displaced 389 ft (119 m)

Latest comments (top)

Treviso-Venice Airport: Finally one quiet, dissent and ... [read]

More... (top)

See also NOTAMs and nearby airports and navaids, or visit the Treviso / Sant'Angelo Airport page at the main OurAirports website..